Crossfield, Canada
Current Conditions -  °F | °C
As of 1:00 PM on Friday 24 Oct 2014 (Local Time) from CYYC Reporting Station
Few Clouds Few Clouds  
Wind Chill: 50°   Ceiling: Unl
Heat Index: 50°   Visibility: 40mi
Dew Point: 14°   Wind: 15mph
Humidity: 24%   Direction: NA
Pressure: 29.91"   Gusts: 22mph
Location:  51.43°N, 114.03°W
Report Text: CYYC 241900Z VRB13G19KT 40SM FEW060 FEW180 FEW210 10/M10 A2991 RMK SC1AC1CI1 SC TR AC TR CI TR SLP150 DENSITY ALT 3900FT
Loading
Personal Weather Stations






























Interactive Weather Map
Tropical Storm Tracking
New forecast layout! Learn more

10-Day Weather Forecast

Advertisements
Track Severe Weather on mobile